sensor_id;sensor_type;location;lat;lon;timestamp;P1;durP1;ratioP1;P2;durP2;ratioP2
40162;SDS011;25881;47.462;19.304;2023-09-19T00:02:26;11.52;;;6.10;;
40162;SDS011;25881;47.462;19.304;2023-09-19T00:04:52;16.40;;;6.13;;
40162;SDS011;25881;47.462;19.304;2023-09-19T00:07:17;15.40;;;6.97;;
40162;SDS011;25881;47.462;19.304;2023-09-19T00:09:42;14.87;;;6.10;;
40162;SDS011;25881;47.462;19.304;2023-09-19T00:12:09;10.52;;;6.32;;
40162;SDS011;25881;47.462;19.304;2023-09-19T00:14:34;13.68;;;6.65;;
40162;SDS011;25881;47.462;19.304;2023-09-19T00:17:00;11.18;;;6.53;;
40162;SDS011;25881;47.462;19.304;2023-09-19T00:19:26;11.65;;;5.80;;
40162;SDS011;25881;47.462;19.304;2023-09-19T00:21:51;10.40;;;6.28;;
40162;SDS011;25881;47.462;19.304;2023-09-19T00:24:18;16.02;;;7.18;;
40162;SDS011;25881;47.462;19.304;2023-09-19T00:26:43;12.20;;;6.30;;
40162;SDS011;25881;47.462;19.304;2023-09-19T00:29:08;12.20;;;6.30;;
40162;SDS011;25881;47.462;19.304;2023-09-19T00:31:34;17.67;;;6.70;;
40162;SDS011;25881;47.462;19.304;2023-09-19T00:33:59;11.10;;;6.38;;
40162;SDS011;25881;47.462;19.304;2023-09-19T00:36:31;12.10;;;6.43;;
40162;SDS011;25881;47.462;19.304;2023-09-19T00:38:58;11.85;;;7.05;;
40162;SDS011;25881;47.462;19.304;2023-09-19T00:41:23;13.37;;;6.80;;
40162;SDS011;25881;47.462;19.304;2023-09-19T00:43:50;13.00;;;7.13;;
40162;SDS011;25881;47.462;19.304;2023-09-19T00:46:18;13.00;;;6.57;;
40162;SDS011;25881;47.462;19.304;2023-09-19T00:48:44;13.93;;;6.53;;
40162;SDS011;25881;47.462;19.304;2023-09-19T00:51:09;15.63;;;7.23;;
40162;SDS011;25881;47.462;19.304;2023-09-19T00:53:35;13.35;;;6.85;;
40162;SDS011;25881;47.462;19.304;2023-09-19T00:56:00;8.70;;;6.37;;
40162;SDS011;25881;47.462;19.304;2023-09-19T00:58:27;11.00;;;6.38;;
40162;SDS011;25881;47.462;19.304;2023-09-19T01:00:57;13.40;;;7.07;;
40162;SDS011;25881;47.462;19.304;2023-09-19T01:03:23;13.50;;;6.65;;
40162;SDS011;25881;47.462;19.304;2023-09-19T01:05:48;9.20;;;6.32;;
40162;SDS011;25881;47.462;19.304;2023-09-19T01:08:14;12.95;;;6.55;;
40162;SDS011;25881;47.462;19.304;2023-09-19T01:10:42;12.40;;;6.77;;
40162;SDS011;25881;47.462;19.304;2023-09-19T01:16:03;14.02;;;7.63;;
40162;SDS011;25881;47.462;19.304;2023-09-19T01:18:39;13.75;;;7.45;;
40162;SDS011;25881;47.462;19.304;2023-09-19T01:21:08;11.68;;;6.22;;
40162;SDS011;25881;47.462;19.304;2023-09-19T01:24:15;14.20;;;7.13;;
40162;SDS011;25881;47.462;19.304;2023-09-19T01:29:17;11.07;;;6.80;;
40162;SDS011;25881;47.462;19.304;2023-09-19T01:31:50;16.10;;;7.10;;
40162;SDS011;25881;47.462;19.304;2023-09-19T01:34:19;12.00;;;6.28;;
40162;SDS011;25881;47.462;19.304;2023-09-19T01:36:44;14.83;;;7.00;;
40162;SDS011;25881;47.462;19.304;2023-09-19T01:39:11;12.75;;;6.97;;
40162;SDS011;25881;47.462;19.304;2023-09-19T01:44:36;11.20;;;7.35;;
40162;SDS011;25881;47.462;19.304;2023-09-19T01:47:04;14.98;;;7.10;;
40162;SDS011;25881;47.462;19.304;2023-09-19T01:52:15;10.88;;;6.80;;
40162;SDS011;25881;47.462;19.304;2023-09-19T01:54:51;12.75;;;6.82;;
40162;SDS011;25881;47.462;19.304;2023-09-19T01:59:45;25.77;;;7.47;;
40162;SDS011;25881;47.462;19.304;2023-09-19T02:02:13;11.75;;;6.60;;
40162;SDS011;25881;47.462;19.304;2023-09-19T02:04:40;13.93;;;7.90;;
40162;SDS011;25881;47.462;19.304;2023-09-19T02:07:05;13.43;;;6.75;;
40162;SDS011;25881;47.462;19.304;2023-09-19T02:09:31;15.48;;;6.90;;
40162;SDS011;25881;47.462;19.304;2023-09-19T02:11:56;13.70;;;6.80;;
40162;SDS011;25881;47.462;19.304;2023-09-19T02:14:21;14.17;;;7.47;;
40162;SDS011;25881;47.462;19.304;2023-09-19T02:16:47;11.02;;;6.40;;
40162;SDS011;25881;47.462;19.304;2023-09-19T02:19:13;16.40;;;7.00;;
40162;SDS011;25881;47.462;19.304;2023-09-19T02:21:38;13.17;;;7.00;;
40162;SDS011;25881;47.462;19.304;2023-09-19T02:24:05;12.65;;;7.30;;
40162;SDS011;25881;47.462;19.304;2023-09-19T02:26:32;14.07;;;7.53;;
40162;SDS011;25881;47.462;19.304;2023-09-19T02:29:01;18.55;;;7.20;;
40162;SDS011;25881;47.462;19.304;2023-09-19T02:31:29;17.48;;;8.05;;
40162;SDS011;25881;47.462;19.304;2023-09-19T02:33:55;13.05;;;6.53;;
40162;SDS011;25881;47.462;19.304;2023-09-19T02:36:21;12.13;;;7.05;;
40162;SDS011;25881;47.462;19.304;2023-09-19T02:38:47;12.15;;;7.03;;
40162;SDS011;25881;47.462;19.304;2023-09-19T02:41:12;10.37;;;7.83;;
40162;SDS011;25881;47.462;19.304;2023-09-19T02:43:37;12.57;;;6.47;;
40162;SDS011;25881;47.462;19.304;2023-09-19T02:46:02;15.50;;;7.50;;
40162;SDS011;25881;47.462;19.304;2023-09-19T02:48:28;11.25;;;6.75;;
40162;SDS011;25881;47.462;19.304;2023-09-19T02:50:54;12.05;;;7.47;;
40162;SDS011;25881;47.462;19.304;2023-09-19T02:53:19;15.40;;;7.57;;
40162;SDS011;25881;47.462;19.304;2023-09-19T02:55:45;18.33;;;7.70;;
40162;SDS011;25881;47.462;19.304;2023-09-19T02:58:11;12.73;;;7.03;;
40162;SDS011;25881;47.462;19.304;2023-09-19T03:00:36;13.73;;;7.17;;
40162;SDS011;25881;47.462;19.304;2023-09-19T03:03:02;14.13;;;6.53;;
40162;SDS011;25881;47.462;19.304;2023-09-19T03:05:28;9.25;;;6.72;;
40162;SDS011;25881;47.462;19.304;2023-09-19T03:07:56;14.30;;;7.13;;
40162;SDS011;25881;47.462;19.304;2023-09-19T03:10:21;12.18;;;7.43;;
40162;SDS011;25881;47.462;19.304;2023-09-19T03:12:47;19.80;;;7.40;;
40162;SDS011;25881;47.462;19.304;2023-09-19T03:15:13;15.05;;;6.88;;
40162;SDS011;25881;47.462;19.304;2023-09-19T03:17:42;9.43;;;6.63;;
40162;SDS011;25881;47.462;19.304;2023-09-19T03:20:08;10.93;;;7.13;;
40162;SDS011;25881;47.462;19.304;2023-09-19T03:22:34;11.57;;;6.82;;
40162;SDS011;25881;47.462;19.304;2023-09-19T03:25:00;12.25;;;7.10;;
40162;SDS011;25881;47.462;19.304;2023-09-19T03:27:25;12.88;;;6.93;;
40162;SDS011;25881;47.462;19.304;2023-09-19T03:29:52;10.35;;;6.80;;
40162;SDS011;25881;47.462;19.304;2023-09-19T03:32:17;10.60;;;6.70;;
40162;SDS011;25881;47.462;19.304;2023-09-19T03:34:42;14.75;;;7.32;;
40162;SDS011;25881;47.462;19.304;2023-09-19T03:37:11;12.02;;;6.93;;
40162;SDS011;25881;47.462;19.304;2023-09-19T03:42:02;15.70;;;6.93;;
40162;SDS011;25881;47.462;19.304;2023-09-19T03:44:32;22.25;;;7.22;;
40162;SDS011;25881;47.462;19.304;2023-09-19T03:46:57;12.50;;;7.43;;
40162;SDS011;25881;47.462;19.304;2023-09-19T03:49:22;12.43;;;7.32;;
40162;SDS011;25881;47.462;19.304;2023-09-19T03:51:48;13.17;;;7.33;;
40162;SDS011;25881;47.462;19.304;2023-09-19T03:54:13;18.13;;;6.88;;
40162;SDS011;25881;47.462;19.304;2023-09-19T03:56:38;12.87;;;7.70;;
40162;SDS011;25881;47.462;19.304;2023-09-19T03:59:03;14.80;;;6.90;;
40162;SDS011;25881;47.462;19.304;2023-09-19T04:01:29;11.23;;;7.53;;
40162;SDS011;25881;47.462;19.304;2023-09-19T04:03:57;14.57;;;7.78;;
40162;SDS011;25881;47.462;19.304;2023-09-19T04:06:22;16.20;;;6.68;;
40162;SDS011;25881;47.462;19.304;2023-09-19T04:08:47;14.40;;;7.47;;
40162;SDS011;25881;47.462;19.304;2023-09-19T04:11:13;14.32;;;7.28;;
40162;SDS011;25881;47.462;19.304;2023-09-19T04:13:39;10.63;;;7.13;;
40162;SDS011;25881;47.462;19.304;2023-09-19T04:16:04;10.90;;;7.00;;
40162;SDS011;25881;47.462;19.304;2023-09-19T04:18:29;13.02;;;6.82;;
40162;SDS011;25881;47.462;19.304;2023-09-19T04:20:58;11.23;;;6.82;;
40162;SDS011;25881;47.462;19.304;2023-09-19T04:23:23;15.40;;;7.13;;
40162;SDS011;25881;47.462;19.304;2023-09-19T04:25:48;12.97;;;7.37;;
40162;SDS011;25881;47.462;19.304;2023-09-19T04:28:14;11.47;;;7.77;;
40162;SDS011;25881;47.462;19.304;2023-09-19T04:30:40;14.68;;;7.43;;
40162;SDS011;25881;47.462;19.304;2023-09-19T04:33:05;20.83;;;7.50;;
40162;SDS011;25881;47.462;19.304;2023-09-19T04:35:31;17.83;;;7.20;;
40162;SDS011;25881;47.462;19.304;2023-09-19T04:37:56;13.53;;;7.47;;
40162;SDS011;25881;47.462;19.304;2023-09-19T04:40:22;16.38;;;7.60;;
40162;SDS011;25881;47.462;19.304;2023-09-19T04:42:53;11.95;;;7.53;;
40162;SDS011;25881;47.462;19.304;2023-09-19T04:45:22;16.65;;;8.05;;
40162;SDS011;25881;47.462;19.304;2023-09-19T04:47:47;14.48;;;7.68;;
40162;SDS011;25881;47.462;19.304;2023-09-19T04:50:12;13.40;;;7.50;;
40162;SDS011;25881;47.462;19.304;2023-09-19T04:52:41;10.75;;;7.80;;
40162;SDS011;25881;47.462;19.304;2023-09-19T04:55:08;14.50;;;7.70;;
40162;SDS011;25881;47.462;19.304;2023-09-19T04:57:34;11.82;;;7.63;;
40162;SDS011;25881;47.462;19.304;2023-09-19T05:00:02;19.30;;;7.80;;
40162;SDS011;25881;47.462;19.304;2023-09-19T05:05:03;14.45;;;8.15;;
40162;SDS011;25881;47.462;19.304;2023-09-19T05:07:30;18.02;;;8.48;;
40162;SDS011;25881;47.462;19.304;2023-09-19T05:09:55;14.20;;;8.43;;
40162;SDS011;25881;47.462;19.304;2023-09-19T05:12:20;15.67;;;8.43;;
40162;SDS011;25881;47.462;19.304;2023-09-19T05:14:45;15.20;;;8.45;;
40162;SDS011;25881;47.462;19.304;2023-09-19T05:17:11;15.03;;;8.33;;
40162;SDS011;25881;47.462;19.304;2023-09-19T05:19:36;14.87;;;8.90;;
40162;SDS011;25881;47.462;19.304;2023-09-19T05:22:01;14.23;;;8.30;;
40162;SDS011;25881;47.462;19.304;2023-09-19T05:24:29;17.00;;;8.33;;
40162;SDS011;25881;47.462;19.304;2023-09-19T05:26:55;14.57;;;9.05;;
40162;SDS011;25881;47.462;19.304;2023-09-19T05:29:21;19.63;;;9.13;;
40162;SDS011;25881;47.462;19.304;2023-09-19T05:31:46;14.90;;;9.30;;
40162;SDS011;25881;47.462;19.304;2023-09-19T05:34:12;19.87;;;9.70;;
40162;SDS011;25881;47.462;19.304;2023-09-19T05:36:37;16.60;;;9.73;;
40162;SDS011;25881;47.462;19.304;2023-09-19T05:39:04;19.02;;;9.77;;
40162;SDS011;25881;47.462;19.304;2023-09-19T05:41:31;29.15;;;9.88;;
40162;SDS011;25881;47.462;19.304;2023-09-19T05:43:56;18.63;;;9.63;;
40162;SDS011;25881;47.462;19.304;2023-09-19T05:46:21;22.43;;;9.50;;
40162;SDS011;25881;47.462;19.304;2023-09-19T05:48:46;15.10;;;6.17;;
40162;SDS011;25881;47.462;19.304;2023-09-19T05:51:12;8.13;;;3.72;;
40162;SDS011;25881;47.462;19.304;2023-09-19T05:53:38;9.97;;;3.47;;
40162;SDS011;25881;47.462;19.304;2023-09-19T05:56:03;6.83;;;2.73;;
40162;SDS011;25881;47.462;19.304;2023-09-19T05:58:28;14.87;;;2.13;;
40162;SDS011;25881;47.462;19.304;2023-09-19T06:00:53;4.30;;;1.60;;
40162;SDS011;25881;47.462;19.304;2023-09-19T06:03:21;5.32;;;1.63;;
40162;SDS011;25881;47.462;19.304;2023-09-19T06:05:46;4.60;;;1.27;;
40162;SDS011;25881;47.462;19.304;2023-09-19T06:08:14;6.72;;;1.20;;
40162;SDS011;25881;47.462;19.304;2023-09-19T06:10:39;1.93;;;1.37;;
40162;SDS011;25881;47.462;19.304;2023-09-19T06:13:05;1.27;;;1.17;;
40162;SDS011;25881;47.462;19.304;2023-09-19T06:15:31;3.03;;;1.35;;
40162;SDS011;25881;47.462;19.304;2023-09-19T06:17:58;1.77;;;1.17;;
40162;SDS011;25881;47.462;19.304;2023-09-19T06:20:24;2.83;;;1.23;;
40162;SDS011;25881;47.462;19.304;2023-09-19T06:22:50;5.75;;;1.20;;
40162;SDS011;25881;47.462;19.304;2023-09-19T06:25:16;4.72;;;0.80;;
40162;SDS011;25881;47.462;19.304;2023-09-19T06:27:48;2.25;;;0.95;;
40162;SDS011;25881;47.462;19.304;2023-09-19T06:30:14;4.40;;;0.82;;
40162;SDS011;25881;47.462;19.304;2023-09-19T06:32:40;1.15;;;0.90;;
40162;SDS011;25881;47.462;19.304;2023-09-19T06:35:08;2.65;;;0.90;;
40162;SDS011;25881;47.462;19.304;2023-09-19T06:37:36;2.80;;;0.90;;
40162;SDS011;25881;47.462;19.304;2023-09-19T06:40:03;3.97;;;1.40;;
40162;SDS011;25881;47.462;19.304;2023-09-19T06:42:30;3.55;;;1.20;;
40162;SDS011;25881;47.462;19.304;2023-09-19T06:44:55;3.80;;;1.63;;
40162;SDS011;25881;47.462;19.304;2023-09-19T06:47:21;6.85;;;1.10;;
40162;SDS011;25881;47.462;19.304;2023-09-19T06:49:46;2.20;;;1.00;;
40162;SDS011;25881;47.462;19.304;2023-09-19T06:52:11;1.70;;;0.87;;
40162;SDS011;25881;47.462;19.304;2023-09-19T06:54:37;2.10;;;0.90;;
40162;SDS011;25881;47.462;19.304;2023-09-19T06:57:03;1.47;;;1.00;;
40162;SDS011;25881;47.462;19.304;2023-09-19T06:59:28;1.05;;;0.60;;
40162;SDS011;25881;47.462;19.304;2023-09-19T07:01:54;1.10;;;0.90;;
40162;SDS011;25881;47.462;19.304;2023-09-19T07:04:19;1.45;;;0.88;;
40162;SDS011;25881;47.462;19.304;2023-09-19T07:06:51;4.68;;;1.17;;
40162;SDS011;25881;47.462;19.304;2023-09-19T07:09:17;2.28;;;0.90;;
40162;SDS011;25881;47.462;19.304;2023-09-19T07:11:44;1.73;;;0.88;;
40162;SDS011;25881;47.462;19.304;2023-09-19T07:14:09;3.63;;;1.00;;
40162;SDS011;25881;47.462;19.304;2023-09-19T07:16:38;5.93;;;1.42;;
40162;SDS011;25881;47.462;19.304;2023-09-19T07:19:04;4.25;;;0.98;;
40162;SDS011;25881;47.462;19.304;2023-09-19T07:21:29;2.17;;;1.00;;
40162;SDS011;25881;47.462;19.304;2023-09-19T07:23:55;8.27;;;1.20;;
40162;SDS011;25881;47.462;19.304;2023-09-19T07:26:20;1.07;;;0.93;;
40162;SDS011;25881;47.462;19.304;2023-09-19T07:28:45;1.73;;;1.17;;
40162;SDS011;25881;47.462;19.304;2023-09-19T07:31:10;2.90;;;1.10;;
40162;SDS011;25881;47.462;19.304;2023-09-19T07:33:36;2.97;;;0.97;;
40162;SDS011;25881;47.462;19.304;2023-09-19T07:36:01;2.13;;;0.93;;
40162;SDS011;25881;47.462;19.304;2023-09-19T07:38:27;1.00;;;0.85;;
40162;SDS011;25881;47.462;19.304;2023-09-19T07:40:52;2.10;;;0.70;;
40162;SDS011;25881;47.462;19.304;2023-09-19T07:43:17;1.00;;;0.90;;
40162;SDS011;25881;47.462;19.304;2023-09-19T07:45:43;1.85;;;0.90;;
40162;SDS011;25881;47.462;19.304;2023-09-19T07:48:08;4.20;;;0.90;;
40162;SDS011;25881;47.462;19.304;2023-09-19T07:50:39;2.17;;;1.10;;
40162;SDS011;25881;47.462;19.304;2023-09-19T07:53:04;2.85;;;0.93;;
40162;SDS011;25881;47.462;19.304;2023-09-19T07:55:30;2.30;;;0.90;;
40162;SDS011;25881;47.462;19.304;2023-09-19T07:57:55;2.13;;;1.07;;
40162;SDS011;25881;47.462;19.304;2023-09-19T08:00:20;1.83;;;0.87;;
40162;SDS011;25881;47.462;19.304;2023-09-19T08:02:46;3.47;;;0.90;;
40162;SDS011;25881;47.462;19.304;2023-09-19T08:05:12;0.93;;;0.90;;
40162;SDS011;25881;47.462;19.304;2023-09-19T08:07:40;2.53;;;1.13;;
40162;SDS011;25881;47.462;19.304;2023-09-19T08:10:06;1.90;;;1.00;;
40162;SDS011;25881;47.462;19.304;2023-09-19T08:12:39;1.15;;;1.05;;
40162;SDS011;25881;47.462;19.304;2023-09-19T08:15:11;4.28;;;1.20;;
40162;SDS011;25881;47.462;19.304;2023-09-19T08:17:36;2.50;;;1.50;;
40162;SDS011;25881;47.462;19.304;2023-09-19T08:20:01;1.60;;;0.93;;
40162;SDS011;25881;47.462;19.304;2023-09-19T08:22:30;3.25;;;1.48;;
40162;SDS011;25881;47.462;19.304;2023-09-19T08:24:57;2.17;;;1.20;;
40162;SDS011;25881;47.462;19.304;2023-09-19T08:27:23;2.70;;;1.38;;
40162;SDS011;25881;47.462;19.304;2023-09-19T08:29:51;3.58;;;1.55;;
40162;SDS011;25881;47.462;19.304;2023-09-19T08:32:17;2.03;;;1.40;;
40162;SDS011;25881;47.462;19.304;2023-09-19T08:34:44;3.22;;;1.45;;
40162;SDS011;25881;47.462;19.304;2023-09-19T08:37:10;3.77;;;1.57;;
40162;SDS011;25881;47.462;19.304;2023-09-19T08:39:35;2.95;;;1.60;;
40162;SDS011;25881;47.462;19.304;2023-09-19T08:42:01;2.30;;;1.35;;
40162;SDS011;25881;47.462;19.304;2023-09-19T08:44:27;4.00;;;1.42;;
40162;SDS011;25881;47.462;19.304;2023-09-19T08:46:58;5.82;;;1.60;;
40162;SDS011;25881;47.462;19.304;2023-09-19T08:49:33;2.97;;;1.70;;
40162;SDS011;25881;47.462;19.304;2023-09-19T08:52:16;3.63;;;1.48;;
40162;SDS011;25881;47.462;19.304;2023-09-19T08:54:45;2.80;;;1.35;;
40162;SDS011;25881;47.462;19.304;2023-09-19T08:57:13;3.85;;;1.83;;
40162;SDS011;25881;47.462;19.304;2023-09-19T08:59:46;3.90;;;1.52;;
40162;SDS011;25881;47.462;19.304;2023-09-19T09:02:12;2.63;;;1.60;;
40162;SDS011;25881;47.462;19.304;2023-09-19T09:04:39;2.85;;;1.27;;
40162;SDS011;25881;47.462;19.304;2023-09-19T09:07:05;5.47;;;1.35;;
40162;SDS011;25881;47.462;19.304;2023-09-19T09:09:31;4.43;;;1.60;;
40162;SDS011;25881;47.462;19.304;2023-09-19T09:11:56;2.33;;;1.50;;
40162;SDS011;25881;47.462;19.304;2023-09-19T09:14:22;5.03;;;1.60;;
40162;SDS011;25881;47.462;19.304;2023-09-19T09:16:49;2.13;;;1.27;;
40162;SDS011;25881;47.462;19.304;2023-09-19T09:19:15;3.95;;;1.50;;
40162;SDS011;25881;47.462;19.304;2023-09-19T09:21:49;4.50;;;1.80;;
40162;SDS011;25881;47.462;19.304;2023-09-19T09:24:29;2.97;;;1.33;;
40162;SDS011;25881;47.462;19.304;2023-09-19T09:26:56;3.15;;;1.70;;
40162;SDS011;25881;47.462;19.304;2023-09-19T09:29:41;4.68;;;1.90;;
40162;SDS011;25881;47.462;19.304;2023-09-19T09:32:19;2.78;;;1.63;;
40162;SDS011;25881;47.462;19.304;2023-09-19T09:34:45;7.10;;;1.75;;
40162;SDS011;25881;47.462;19.304;2023-09-19T09:37:14;2.60;;;1.63;;
40162;SDS011;25881;47.462;19.304;2023-09-19T09:39:40;4.03;;;1.52;;
40162;SDS011;25881;47.462;19.304;2023-09-19T09:42:29;2.30;;;1.63;;
40162;SDS011;25881;47.462;19.304;2023-09-19T09:48:00;1.73;;;1.33;;
40162;SDS011;25881;47.462;19.304;2023-09-19T09:53:02;3.35;;;1.40;;
40162;SDS011;25881;47.462;19.304;2023-09-19T09:58:16;2.15;;;1.40;;
40162;SDS011;25881;47.462;19.304;2023-09-19T10:00:52;1.98;;;1.25;;
40162;SDS011;25881;47.462;19.304;2023-09-19T10:03:30;3.28;;;1.85;;
40162;SDS011;25881;47.462;19.304;2023-09-19T10:05:56;4.28;;;1.77;;
40162;SDS011;25881;47.462;19.304;2023-09-19T10:08:23;3.30;;;1.70;;
40162;SDS011;25881;47.462;19.304;2023-09-19T10:10:48;3.25;;;1.70;;
40162;SDS011;25881;47.462;19.304;2023-09-19T10:13:28;3.28;;;1.65;;
40162;SDS011;25881;47.462;19.304;2023-09-19T10:15:55;3.35;;;1.52;;
40162;SDS011;25881;47.462;19.304;2023-09-19T10:18:24;2.97;;;1.60;;
40162;SDS011;25881;47.462;19.304;2023-09-19T10:20:50;3.67;;;1.88;;
40162;SDS011;25881;47.462;19.304;2023-09-19T10:23:16;2.97;;;1.55;;
40162;SDS011;25881;47.462;19.304;2023-09-19T10:25:47;3.92;;;2.00;;
40162;SDS011;25881;47.462;19.304;2023-09-19T10:28:14;2.47;;;1.30;;
40162;SDS011;25881;47.462;19.304;2023-09-19T10:30:46;3.33;;;1.52;;
40162;SDS011;25881;47.462;19.304;2023-09-19T10:33:16;4.03;;;1.48;;
40162;SDS011;25881;47.462;19.304;2023-09-19T10:35:45;2.50;;;1.25;;
40162;SDS011;25881;47.462;19.304;2023-09-19T10:38:11;2.05;;;1.38;;
40162;SDS011;25881;47.462;19.304;2023-09-19T10:40:37;4.65;;;1.50;;
40162;SDS011;25881;47.462;19.304;2023-09-19T10:43:07;4.60;;;2.00;;
40162;SDS011;25881;47.462;19.304;2023-09-19T10:45:36;1.85;;;1.58;;
40162;SDS011;25881;47.462;19.304;2023-09-19T10:48:03;5.88;;;2.03;;
40162;SDS011;25881;47.462;19.304;2023-09-19T10:50:31;5.50;;;1.80;;
40162;SDS011;25881;47.462;19.304;2023-09-19T10:52:59;2.78;;;2.00;;
40162;SDS011;25881;47.462;19.304;2023-09-19T10:55:29;2.38;;;1.60;;
40162;SDS011;25881;47.462;19.304;2023-09-19T10:57:55;4.20;;;1.80;;
40162;SDS011;25881;47.462;19.304;2023-09-19T11:00:22;4.07;;;1.95;;
40162;SDS011;25881;47.462;19.304;2023-09-19T11:05:36;4.75;;;2.33;;
40162;SDS011;25881;47.462;19.304;2023-09-19T11:08:08;2.55;;;1.88;;
40162;SDS011;25881;47.462;19.304;2023-09-19T11:13:27;4.75;;;2.00;;
40162;SDS011;25881;47.462;19.304;2023-09-19T11:27:11;3.33;;;2.00;;
40162;SDS011;25881;47.462;19.304;2023-09-19T11:29:42;5.22;;;1.63;;
40162;SDS011;25881;47.462;19.304;2023-09-19T11:32:07;4.17;;;2.17;;
40162;SDS011;25881;47.462;19.304;2023-09-19T11:34:42;4.30;;;2.20;;
40162;SDS011;25881;47.462;19.304;2023-09-19T11:39:36;5.78;;;3.03;;
40162;SDS011;25881;47.462;19.304;2023-09-19T11:42:08;4.82;;;3.13;;
40162;SDS011;25881;47.462;19.304;2023-09-19T11:44:48;6.68;;;3.03;;
40162;SDS011;25881;47.462;19.304;2023-09-19T11:47:17;3.70;;;2.30;;
40162;SDS011;25881;47.462;19.304;2023-09-19T11:49:43;4.57;;;1.60;;
40162;SDS011;25881;47.462;19.304;2023-09-19T11:52:09;3.78;;;1.38;;
40162;SDS011;25881;47.462;19.304;2023-09-19T11:54:35;2.75;;;1.40;;
40162;SDS011;25881;47.462;19.304;2023-09-19T11:57:02;3.70;;;1.45;;
40162;SDS011;25881;47.462;19.304;2023-09-19T11:59:28;3.15;;;1.70;;
40162;SDS011;25881;47.462;19.304;2023-09-19T12:01:55;3.13;;;1.30;;
40162;SDS011;25881;47.462;19.304;2023-09-19T12:07:03;3.38;;;1.40;;
40162;SDS011;25881;47.462;19.304;2023-09-19T12:09:29;3.83;;;1.48;;
40162;SDS011;25881;47.462;19.304;2023-09-19T12:11:54;2.73;;;1.40;;
40162;SDS011;25881;47.462;19.304;2023-09-19T12:14:23;3.37;;;1.77;;
40162;SDS011;25881;47.462;19.304;2023-09-19T12:16:52;1.55;;;1.15;;
40162;SDS011;25881;47.462;19.304;2023-09-19T12:19:20;2.85;;;1.27;;
40162;SDS011;25881;47.462;19.304;2023-09-19T12:21:56;3.42;;;1.20;;
40162;SDS011;25881;47.462;19.304;2023-09-19T12:24:29;2.17;;;1.35;;
40162;SDS011;25881;47.462;19.304;2023-09-19T12:27:03;6.32;;;1.35;;
40162;SDS011;25881;47.462;19.304;2023-09-19T12:29:41;6.10;;;1.83;;
40162;SDS011;25881;47.462;19.304;2023-09-19T12:32:06;2.97;;;1.70;;
40162;SDS011;25881;47.462;19.304;2023-09-19T12:34:32;3.65;;;1.27;;
40162;SDS011;25881;47.462;19.304;2023-09-19T12:37:07;1.85;;;1.30;;
40162;SDS011;25881;47.462;19.304;2023-09-19T12:39:43;2.40;;;1.20;;
40162;SDS011;25881;47.462;19.304;2023-09-19T12:42:13;4.68;;;1.58;;
40162;SDS011;25881;47.462;19.304;2023-09-19T12:44:42;1.63;;;1.10;;
40162;SDS011;25881;47.462;19.304;2023-09-19T12:47:10;5.15;;;1.55;;
40162;SDS011;25881;47.462;19.304;2023-09-19T12:49:35;4.07;;;1.52;;
40162;SDS011;25881;47.462;19.304;2023-09-19T12:52:01;5.13;;;1.57;;
40162;SDS011;25881;47.462;19.304;2023-09-19T12:54:37;3.07;;;1.37;;
40162;SDS011;25881;47.462;19.304;2023-09-19T12:57:03;3.13;;;1.60;;
40162;SDS011;25881;47.462;19.304;2023-09-19T12:59:30;5.05;;;1.30;;
40162;SDS011;25881;47.462;19.304;2023-09-19T13:02:04;3.13;;;1.42;;
40162;SDS011;25881;47.462;19.304;2023-09-19T13:04:32;3.97;;;1.58;;
40162;SDS011;25881;47.462;19.304;2023-09-19T13:06:59;4.50;;;1.55;;
40162;SDS011;25881;47.462;19.304;2023-09-19T13:09:26;4.20;;;1.67;;
40162;SDS011;25881;47.462;19.304;2023-09-19T13:11:59;5.03;;;1.40;;
40162;SDS011;25881;47.462;19.304;2023-09-19T13:14:27;4.50;;;1.90;;
40162;SDS011;25881;47.462;19.304;2023-09-19T13:19:35;6.57;;;1.85;;
40162;SDS011;25881;47.462;19.304;2023-09-19T13:22:00;5.40;;;1.73;;
40162;SDS011;25881;47.462;19.304;2023-09-19T13:24:26;2.88;;;1.50;;
40162;SDS011;25881;47.462;19.304;2023-09-19T13:26:52;5.85;;;1.95;;
40162;SDS011;25881;47.462;19.304;2023-09-19T13:29:18;4.30;;;1.75;;
40162;SDS011;25881;47.462;19.304;2023-09-19T13:31:49;4.22;;;1.77;;
40162;SDS011;25881;47.462;19.304;2023-09-19T13:34:15;4.18;;;1.73;;
40162;SDS011;25881;47.462;19.304;2023-09-19T13:36:42;2.83;;;1.88;;
40162;SDS011;25881;47.462;19.304;2023-09-19T13:39:07;4.33;;;1.43;;
40162;SDS011;25881;47.462;19.304;2023-09-19T13:41:34;7.82;;;1.90;;
40162;SDS011;25881;47.462;19.304;2023-09-19T13:44:01;7.00;;;1.70;;
40162;SDS011;25881;47.462;19.304;2023-09-19T13:46:26;3.20;;;1.60;;
40162;SDS011;25881;47.462;19.304;2023-09-19T13:48:52;5.45;;;1.85;;
40162;SDS011;25881;47.462;19.304;2023-09-19T13:51:20;3.72;;;2.25;;
40162;SDS011;25881;47.462;19.304;2023-09-19T13:53:46;7.35;;;2.10;;
40162;SDS011;25881;47.462;19.304;2023-09-19T13:56:11;3.45;;;1.80;;
40162;SDS011;25881;47.462;19.304;2023-09-19T13:58:38;2.35;;;1.75;;
40162;SDS011;25881;47.462;19.304;2023-09-19T14:01:03;4.50;;;2.10;;
40162;SDS011;25881;47.462;19.304;2023-09-19T14:03:28;2.73;;;1.73;;
40162;SDS011;25881;47.462;19.304;2023-09-19T14:05:54;3.83;;;2.07;;
40162;SDS011;25881;47.462;19.304;2023-09-19T14:08:19;3.38;;;1.67;;
40162;SDS011;25881;47.462;19.304;2023-09-19T14:10:45;7.00;;;1.73;;
40162;SDS011;25881;47.462;19.304;2023-09-19T14:13:10;3.83;;;1.90;;
40162;SDS011;25881;47.462;19.304;2023-09-19T14:15:38;5.67;;;2.00;;
40162;SDS011;25881;47.462;19.304;2023-09-19T14:18:04;6.55;;;2.30;;
40162;SDS011;25881;47.462;19.304;2023-09-19T14:20:29;4.05;;;2.08;;
40162;SDS011;25881;47.462;19.304;2023-09-19T14:22:55;5.25;;;2.20;;
40162;SDS011;25881;47.462;19.304;2023-09-19T14:25:21;2.92;;;1.52;;
40162;SDS011;25881;47.462;19.304;2023-09-19T14:27:47;4.25;;;2.10;;
40162;SDS011;25881;47.462;19.304;2023-09-19T14:30:12;3.33;;;2.00;;
40162;SDS011;25881;47.462;19.304;2023-09-19T14:32:38;3.53;;;1.90;;
40162;SDS011;25881;47.462;19.304;2023-09-19T14:35:04;4.35;;;1.50;;
40162;SDS011;25881;47.462;19.304;2023-09-19T14:37:29;3.25;;;1.80;;
40162;SDS011;25881;47.462;19.304;2023-09-19T14:39:56;2.88;;;1.77;;
40162;SDS011;25881;47.462;19.304;2023-09-19T14:42:21;3.80;;;1.80;;
40162;SDS011;25881;47.462;19.304;2023-09-19T14:44:46;5.93;;;1.70;;
40162;SDS011;25881;47.462;19.304;2023-09-19T14:47:13;4.50;;;1.80;;
40162;SDS011;25881;47.462;19.304;2023-09-19T14:49:39;3.53;;;1.70;;
40162;SDS011;25881;47.462;19.304;2023-09-19T14:52:08;6.90;;;2.42;;
40162;SDS011;25881;47.462;19.304;2023-09-19T14:54:33;3.10;;;1.70;;
40162;SDS011;25881;47.462;19.304;2023-09-19T14:56:59;3.08;;;1.80;;
40162;SDS011;25881;47.462;19.304;2023-09-19T14:59:32;5.70;;;2.10;;
40162;SDS011;25881;47.462;19.304;2023-09-19T15:01:58;8.13;;;2.35;;
40162;SDS011;25881;47.462;19.304;2023-09-19T15:04:23;3.33;;;1.90;;
40162;SDS011;25881;47.462;19.304;2023-09-19T15:06:49;5.25;;;2.42;;
40162;SDS011;25881;47.462;19.304;2023-09-19T15:09:14;4.55;;;1.92;;
40162;SDS011;25881;47.462;19.304;2023-09-19T15:11:43;4.72;;;2.00;;
40162;SDS011;25881;47.462;19.304;2023-09-19T15:16:34;4.45;;;2.25;;
40162;SDS011;25881;47.462;19.304;2023-09-19T15:19:00;8.88;;;2.28;;
40162;SDS011;25881;47.462;19.304;2023-09-19T15:21:26;6.15;;;2.10;;
40162;SDS011;25881;47.462;19.304;2023-09-19T15:23:51;3.63;;;2.17;;
40162;SDS011;25881;47.462;19.304;2023-09-19T15:26:18;2.45;;;1.70;;